sensor_id;sensor_type;location;lat;lon;timestamp;pressure;altitude;pressure_sealevel;temperature;humidity
78064;BME280;67429;51.596;-3.264;2024-01-25T00:00:03;100721.54;;;8.06;100.00
78064;BME280;67429;51.596;-3.264;2024-01-25T00:02:28;100723.74;;;8.24;100.00
78064;BME280;67429;51.596;-3.264;2024-01-25T00:04:54;100722.20;;;8.92;100.00
78064;BME280;67429;51.596;-3.264;2024-01-25T00:07:19;100716.08;;;8.66;100.00
78064;BME280;67429;51.596;-3.264;2024-01-25T00:09:44;100713.12;;;8.27;100.00
78064;BME280;67429;51.596;-3.264;2024-01-25T00:12:09;100706.50;;;8.73;100.00
78064;BME280;67429;51.596;-3.264;2024-01-25T00:14:34;100702.52;;;8.71;100.00
78064;BME280;67429;51.596;-3.264;2024-01-25T00:16:59;100697.81;;;9.06;100.00
78064;BME280;67429;51.596;-3.264;2024-01-25T00:19:25;100697.45;;;9.62;100.00
78064;BME280;67429;51.596;-3.264;2024-01-25T00:21:51;100699.88;;;9.96;100.00
78064;BME280;67429;51.596;-3.264;2024-01-25T00:24:17;100691.39;;;9.65;100.00
78064;BME280;67429;51.596;-3.264;2024-01-25T00:26:41;100691.51;;;10.72;100.00
78064;BME280;67429;51.596;-3.264;2024-01-25T00:29:06;100687.33;;;10.49;100.00
78064;BME280;67429;51.596;-3.264;2024-01-25T00:31:32;100680.68;;;10.99;100.00
78064;BME280;67429;51.596;-3.264;2024-01-25T00:34:03;100680.17;;;10.58;100.00
78064;BME280;67429;51.596;-3.264;2024-01-25T00:36:23;100677.74;;;9.83;100.00
78064;BME280;67429;51.596;-3.264;2024-01-25T00:38:48;100672.43;;;9.42;100.00
78064;BME280;67429;51.596;-3.264;2024-01-25T00:41:18;100676.26;;;9.24;100.00
78064;BME280;67429;51.596;-3.264;2024-01-25T00:43:40;100674.49;;;8.52;100.00
78064;BME280;67429;51.596;-3.264;2024-01-25T00:46:05;100667.29;;;8.37;100.00
78064;BME280;67429;51.596;-3.264;2024-01-25T00:48:30;100665.97;;;8.60;100.00
78064;BME280;67429;51.596;-3.264;2024-01-25T00:50:57;100668.11;;;9.97;100.00
78064;BME280;67429;51.596;-3.264;2024-01-25T00:53:21;100668.28;;;10.04;100.00
78064;BME280;67429;51.596;-3.264;2024-01-25T00:55:48;100662.38;;;8.99;100.00
78064;BME280;67429;51.596;-3.264;2024-01-25T00:58:13;100660.47;;;9.55;100.00
78064;BME280;67429;51.596;-3.264;2024-01-25T01:00:41;100653.13;;;9.14;100.00
78064;BME280;67429;51.596;-3.264;2024-01-25T01:03:05;100649.47;;;9.79;100.00
78064;BME280;67429;51.596;-3.264;2024-01-25T01:05:30;100648.07;;;10.43;100.00
78064;BME280;67429;51.596;-3.264;2024-01-25T01:07:55;100644.20;;;10.53;100.00
78064;BME280;67429;51.596;-3.264;2024-01-25T01:10:19;100645.79;;;10.38;100.00
78064;BME280;67429;51.596;-3.264;2024-01-25T01:12:46;100649.72;;;11.03;100.00
78064;BME280;67429;51.596;-3.264;2024-01-25T01:15:10;100635.39;;;9.82;100.00
78064;BME280;67429;51.596;-3.264;2024-01-25T01:17:35;100625.65;;;9.79;100.00
78064;BME280;67429;51.596;-3.264;2024-01-25T01:20:00;100618.85;;;7.99;100.00
78064;BME280;67429;51.596;-3.264;2024-01-25T01:22:25;100611.74;;;9.13;100.00
78064;BME280;67429;51.596;-3.264;2024-01-25T01:24:51;100613.91;;;10.06;100.00
78064;BME280;67429;51.596;-3.264;2024-01-25T01:27:17;100617.72;;;10.49;100.00
78064;BME280;67429;51.596;-3.264;2024-01-25T01:29:42;100615.76;;;10.32;100.00
78064;BME280;67429;51.596;-3.264;2024-01-25T01:32:08;100600.10;;;9.90;100.00
78064;BME280;67429;51.596;-3.264;2024-01-25T01:34:34;100589.91;;;10.28;100.00
78064;BME280;67429;51.596;-3.264;2024-01-25T01:36:58;100586.83;;;9.50;100.00
78064;BME280;67429;51.596;-3.264;2024-01-25T01:39:24;100590.10;;;8.73;100.00
78064;BME280;67429;51.596;-3.264;2024-01-25T01:41:49;100597.77;;;8.25;100.00
78064;BME280;67429;51.596;-3.264;2024-01-25T01:44:14;100594.27;;;9.32;100.00
78064;BME280;67429;51.596;-3.264;2024-01-25T01:46:39;100589.35;;;8.93;100.00
78064;BME280;67429;51.596;-3.264;2024-01-25T01:49:06;100595.11;;;9.43;100.00
78064;BME280;67429;51.596;-3.264;2024-01-25T01:51:31;100607.18;;;9.38;100.00
78064;BME280;67429;51.596;-3.264;2024-01-25T01:53:57;100611.44;;;9.25;100.00
78064;BME280;67429;51.596;-3.264;2024-01-25T01:56:22;100608.09;;;10.10;100.00
78064;BME280;67429;51.596;-3.264;2024-01-25T01:58:48;100596.43;;;9.71;100.00
78064;BME280;67429;51.596;-3.264;2024-01-25T02:01:13;100595.19;;;9.93;100.00
78064;BME280;67429;51.596;-3.264;2024-01-25T02:03:37;100596.95;;;9.45;100.00
78064;BME280;67429;51.596;-3.264;2024-01-25T02:06:02;100581.25;;;8.87;100.00
78064;BME280;67429;51.596;-3.264;2024-01-25T02:08:28;100569.36;;;8.06;100.00
78064;BME280;67429;51.596;-3.264;2024-01-25T02:10:53;100558.21;;;7.69;100.00
78064;BME280;67429;51.596;-3.264;2024-01-25T02:13:17;100568.80;;;7.19;100.00
78064;BME280;67429;51.596;-3.264;2024-01-25T02:15:43;100564.16;;;7.33;100.00
78064;BME280;67429;51.596;-3.264;2024-01-25T02:18:09;100566.61;;;7.09;100.00
78064;BME280;67429;51.596;-3.264;2024-01-25T02:20:34;100556.01;;;7.60;100.00
78064;BME280;67429;51.596;-3.264;2024-01-25T02:23:01;100541.77;;;7.86;100.00
78064;BME280;67429;51.596;-3.264;2024-01-25T02:25:26;100542.33;;;7.43;100.00
78064;BME280;67429;51.596;-3.264;2024-01-25T02:27:51;100545.74;;;7.30;100.00
78064;BME280;67429;51.596;-3.264;2024-01-25T02:30:16;100544.83;;;7.01;100.00
78064;BME280;67429;51.596;-3.264;2024-01-25T02:32:42;100538.19;;;6.80;100.00
78064;BME280;67429;51.596;-3.264;2024-01-25T02:35:07;100535.18;;;5.98;100.00
78064;BME280;67429;51.596;-3.264;2024-01-25T02:37:32;100530.93;;;6.75;100.00
78064;BME280;67429;51.596;-3.264;2024-01-25T02:39:58;100528.04;;;6.78;100.00
78064;BME280;67429;51.596;-3.264;2024-01-25T02:42:23;100528.80;;;7.36;100.00
78064;BME280;67429;51.596;-3.264;2024-01-25T02:44:48;100517.59;;;7.50;100.00
78064;BME280;67429;51.596;-3.264;2024-01-25T02:47:15;100519.75;;;7.70;100.00
78064;BME280;67429;51.596;-3.264;2024-01-25T02:49:39;100517.77;;;7.61;100.00
78064;BME280;67429;51.596;-3.264;2024-01-25T02:52:04;100514.12;;;7.46;100.00
78064;BME280;67429;51.596;-3.264;2024-01-25T02:54:29;100512.52;;;7.33;100.00
78064;BME280;67429;51.596;-3.264;2024-01-25T02:56:55;100507.31;;;7.21;100.00
78064;BME280;67429;51.596;-3.264;2024-01-25T02:59:20;100503.69;;;7.29;100.00
78064;BME280;67429;51.596;-3.264;2024-01-25T03:01:48;100503.22;;;6.97;100.00
78064;BME280;67429;51.596;-3.264;2024-01-25T03:04:11;100502.38;;;7.25;100.00
78064;BME280;67429;51.596;-3.264;2024-01-25T03:06:37;100501.20;;;7.87;100.00
78064;BME280;67429;51.596;-3.264;2024-01-25T03:09:03;100499.74;;;7.27;100.00
78064;BME280;67429;51.596;-3.264;2024-01-25T03:11:28;100494.07;;;7.67;100.00
78064;BME280;67429;51.596;-3.264;2024-01-25T03:13:56;100492.90;;;6.82;100.00
78064;BME280;67429;51.596;-3.264;2024-01-25T03:16:20;100495.78;;;7.04;100.00
78064;BME280;67429;51.596;-3.264;2024-01-25T03:18:45;100487.44;;;7.20;100.00
78064;BME280;67429;51.596;-3.264;2024-01-25T03:21:11;100480.76;;;7.29;100.00
78064;BME280;67429;51.596;-3.264;2024-01-25T03:23:42;100474.33;;;7.10;100.00
78064;BME280;67429;51.596;-3.264;2024-01-25T03:26:02;100472.10;;;7.31;100.00
78064;BME280;67429;51.596;-3.264;2024-01-25T03:28:28;100470.18;;;7.36;100.00
78064;BME280;67429;51.596;-3.264;2024-01-25T03:30:54;100459.80;;;7.57;100.00
78064;BME280;67429;51.596;-3.264;2024-01-25T03:33:19;100460.37;;;7.53;100.00
78064;BME280;67429;51.596;-3.264;2024-01-25T03:35:45;100452.87;;;8.07;100.00
78064;BME280;67429;51.596;-3.264;2024-01-25T03:38:11;100438.65;;;7.60;100.00
78064;BME280;67429;51.596;-3.264;2024-01-25T03:40:36;100438.18;;;7.65;100.00
78064;BME280;67429;51.596;-3.264;2024-01-25T03:43:02;100436.30;;;6.93;100.00
78064;BME280;67429;51.596;-3.264;2024-01-25T03:45:28;100431.81;;;7.65;100.00
78064;BME280;67429;51.596;-3.264;2024-01-25T03:47:53;100428.43;;;7.42;100.00
78064;BME280;67429;51.596;-3.264;2024-01-25T03:50:20;100425.79;;;7.04;100.00
78064;BME280;67429;51.596;-3.264;2024-01-25T03:52:44;100415.70;;;7.41;100.00
78064;BME280;67429;51.596;-3.264;2024-01-25T03:55:10;100407.99;;;7.40;100.00
78064;BME280;67429;51.596;-3.264;2024-01-25T03:57:36;100406.86;;;6.93;100.00
78064;BME280;67429;51.596;-3.264;2024-01-25T04:00:01;100404.15;;;7.54;100.00
78064;BME280;67429;51.596;-3.264;2024-01-25T04:02:27;100405.05;;;6.95;100.00
78064;BME280;67429;51.596;-3.264;2024-01-25T04:04:52;100413.32;;;7.09;100.00
78064;BME280;67429;51.596;-3.264;2024-01-25T04:07:18;100408.36;;;7.73;100.00
78064;BME280;67429;51.596;-3.264;2024-01-25T04:09:45;100407.12;;;7.83;100.00
78064;BME280;67429;51.596;-3.264;2024-01-25T04:12:09;100400.82;;;6.79;100.00
78064;BME280;67429;51.596;-3.264;2024-01-25T04:14:35;100392.04;;;6.19;100.00
78064;BME280;67429;51.596;-3.264;2024-01-25T04:17:01;100387.31;;;5.55;100.00
78064;BME280;67429;51.596;-3.264;2024-01-25T04:19:31;100393.34;;;5.36;100.00
78064;BME280;67429;51.596;-3.264;2024-01-25T04:21:52;100399.29;;;6.10;100.00
78064;BME280;67429;51.596;-3.264;2024-01-25T04:24:17;100389.56;;;6.38;100.00
78064;BME280;67429;51.596;-3.264;2024-01-25T04:26:43;100402.51;;;6.46;100.00
78064;BME280;67429;51.596;-3.264;2024-01-25T04:29:09;100400.08;;;6.20;100.00
78064;BME280;67429;51.596;-3.264;2024-01-25T04:31:34;100384.90;;;6.86;100.00
78064;BME280;67429;51.596;-3.264;2024-01-25T04:34:00;100383.52;;;6.64;100.00
78064;BME280;67429;51.596;-3.264;2024-01-25T04:36:26;100391.44;;;6.28;100.00
78064;BME280;67429;51.596;-3.264;2024-01-25T04:38:51;100379.53;;;6.34;100.00
78064;BME280;67429;51.596;-3.264;2024-01-25T04:41:17;100368.81;;;6.16;100.00
78064;BME280;67429;51.596;-3.264;2024-01-25T04:43:43;100365.47;;;6.56;100.00
78064;BME280;67429;51.596;-3.264;2024-01-25T04:46:09;100352.88;;;6.35;100.00
78064;BME280;67429;51.596;-3.264;2024-01-25T04:48:33;100362.97;;;6.87;100.00
78064;BME280;67429;51.596;-3.264;2024-01-25T04:50:58;100356.68;;;6.68;100.00
78064;BME280;67429;51.596;-3.264;2024-01-25T04:53:24;100356.06;;;6.67;100.00
78064;BME280;67429;51.596;-3.264;2024-01-25T04:55:50;100356.80;;;7.07;100.00
78064;BME280;67429;51.596;-3.264;2024-01-25T04:58:15;100356.62;;;6.33;100.00
78064;BME280;67429;51.596;-3.264;2024-01-25T05:00:40;100352.04;;;6.92;100.00
78064;BME280;67429;51.596;-3.264;2024-01-25T05:03:06;100349.10;;;7.47;100.00
78064;BME280;67429;51.596;-3.264;2024-01-25T05:05:32;100344.95;;;7.69;100.00
78064;BME280;67429;51.596;-3.264;2024-01-25T05:07:59;100340.44;;;7.39;100.00
78064;BME280;67429;51.596;-3.264;2024-01-25T05:10:23;100342.28;;;7.08;100.00
78064;BME280;67429;51.596;-3.264;2024-01-25T05:12:48;100344.89;;;7.28;100.00
78064;BME280;67429;51.596;-3.264;2024-01-25T05:15:14;100341.98;;;6.21;100.00
78064;BME280;67429;51.596;-3.264;2024-01-25T05:17:40;100339.71;;;6.72;100.00
78064;BME280;67429;51.596;-3.264;2024-01-25T05:20:06;100344.93;;;7.42;100.00
78064;BME280;67429;51.596;-3.264;2024-01-25T05:22:32;100339.23;;;6.97;100.00
78064;BME280;67429;51.596;-3.264;2024-01-25T05:24:56;100329.24;;;7.71;100.00
78064;BME280;67429;51.596;-3.264;2024-01-25T05:27:21;100328.12;;;7.89;100.00
78064;BME280;67429;51.596;-3.264;2024-01-25T05:29:47;100326.86;;;8.36;100.00
78064;BME280;67429;51.596;-3.264;2024-01-25T05:32:13;100319.42;;;7.83;100.00
78064;BME280;67429;51.596;-3.264;2024-01-25T05:34:39;100319.66;;;7.98;100.00
78064;BME280;67429;51.596;-3.264;2024-01-25T05:37:04;100316.38;;;7.32;100.00
78064;BME280;67429;51.596;-3.264;2024-01-25T05:39:29;100314.87;;;7.13;100.00
78064;BME280;67429;51.596;-3.264;2024-01-25T05:41:55;100318.54;;;8.43;100.00
78064;BME280;67429;51.596;-3.264;2024-01-25T05:44:22;100328.81;;;8.80;100.00
78064;BME280;67429;51.596;-3.264;2024-01-25T05:46:47;100327.24;;;7.65;100.00
78064;BME280;67429;51.596;-3.264;2024-01-25T05:49:14;100324.52;;;9.05;100.00
78064;BME280;67429;51.596;-3.264;2024-01-25T05:51:43;100323.86;;;8.27;100.00
78064;BME280;67429;51.596;-3.264;2024-01-25T05:54:03;100326.57;;;7.60;100.00
78064;BME280;67429;51.596;-3.264;2024-01-25T05:56:29;100335.98;;;7.26;100.00
78064;BME280;67429;51.596;-3.264;2024-01-25T05:58:56;100321.53;;;6.22;100.00
78064;BME280;67429;51.596;-3.264;2024-01-25T06:01:20;100321.16;;;6.82;100.00
78064;BME280;67429;51.596;-3.264;2024-01-25T06:03:47;100328.12;;;7.54;100.00
78064;BME280;67429;51.596;-3.264;2024-01-25T06:06:11;100322.69;;;7.05;100.00
78064;BME280;67429;51.596;-3.264;2024-01-25T06:08:37;100323.16;;;7.17;100.00
78064;BME280;67429;51.596;-3.264;2024-01-25T06:11:03;100327.57;;;7.99;100.00
78064;BME280;67429;51.596;-3.264;2024-01-25T06:13:29;100313.82;;;6.40;100.00
78064;BME280;67429;51.596;-3.264;2024-01-25T06:15:54;100317.67;;;6.42;100.00
78064;BME280;67429;51.596;-3.264;2024-01-25T06:18:20;100331.91;;;7.48;100.00
78064;BME280;67429;51.596;-3.264;2024-01-25T06:20:45;100306.29;;;8.46;100.00
78064;BME280;67429;51.596;-3.264;2024-01-25T06:23:11;100288.07;;;9.14;100.00
78064;BME280;67429;51.596;-3.264;2024-01-25T06:25:37;100293.96;;;8.77;100.00
78064;BME280;67429;51.596;-3.264;2024-01-25T06:28:03;100293.10;;;9.66;100.00
78064;BME280;67429;51.596;-3.264;2024-01-25T06:30:27;100292.38;;;8.53;100.00
78064;BME280;67429;51.596;-3.264;2024-01-25T06:32:53;100295.35;;;8.22;100.00
78064;BME280;67429;51.596;-3.264;2024-01-25T06:35:19;100295.38;;;8.41;100.00
78064;BME280;67429;51.596;-3.264;2024-01-25T06:37:44;100305.60;;;8.08;100.00
78064;BME280;67429;51.596;-3.264;2024-01-25T06:40:11;100310.01;;;7.72;100.00
78064;BME280;67429;51.596;-3.264;2024-01-25T06:42:35;100315.34;;;8.01;100.00
78064;BME280;67429;51.596;-3.264;2024-01-25T06:45:01;100309.32;;;8.25;100.00
78064;BME280;67429;51.596;-3.264;2024-01-25T06:47:27;100299.31;;;8.56;100.00
78064;BME280;67429;51.596;-3.264;2024-01-25T06:49:52;100286.28;;;9.08;100.00
78064;BME280;67429;51.596;-3.264;2024-01-25T06:52:18;100289.94;;;8.78;100.00
78064;BME280;67429;51.596;-3.264;2024-01-25T06:54:44;100288.96;;;9.13;100.00
78064;BME280;67429;51.596;-3.264;2024-01-25T06:57:09;100284.01;;;7.68;100.00
78064;BME280;67429;51.596;-3.264;2024-01-25T06:59:35;100288.42;;;9.27;100.00
78064;BME280;67429;51.596;-3.264;2024-01-25T07:02:00;100278.71;;;9.00;100.00
78064;BME280;67429;51.596;-3.264;2024-01-25T07:04:25;100285.38;;;8.18;100.00
78064;BME280;67429;51.596;-3.264;2024-01-25T07:06:51;100276.37;;;8.79;100.00
78064;BME280;67429;51.596;-3.264;2024-01-25T07:09:17;100280.58;;;8.15;100.00
78064;BME280;67429;51.596;-3.264;2024-01-25T07:11:43;100279.29;;;8.18;100.00
78064;BME280;67429;51.596;-3.264;2024-01-25T07:14:08;100282.53;;;7.22;100.00
78064;BME280;67429;51.596;-3.264;2024-01-25T07:16:34;100294.22;;;7.04;100.00
78064;BME280;67429;51.596;-3.264;2024-01-25T07:18:59;100297.19;;;6.37;100.00
78064;BME280;67429;51.596;-3.264;2024-01-25T07:21:25;100297.24;;;7.24;100.00
78064;BME280;67429;51.596;-3.264;2024-01-25T07:23:50;100291.12;;;7.35;100.00
78064;BME280;67429;51.596;-3.264;2024-01-25T07:26:17;100290.90;;;7.68;100.00
78064;BME280;67429;51.596;-3.264;2024-01-25T07:28:42;100284.10;;;7.09;100.00
78064;BME280;67429;51.596;-3.264;2024-01-25T07:31:07;100282.79;;;6.80;100.00
78064;BME280;67429;51.596;-3.264;2024-01-25T07:33:33;100276.63;;;7.08;100.00
78064;BME280;67429;51.596;-3.264;2024-01-25T07:35:59;100273.40;;;7.98;100.00
78064;BME280;67429;51.596;-3.264;2024-01-25T07:38:24;100267.83;;;8.55;100.00
78064;BME280;67429;51.596;-3.264;2024-01-25T07:40:51;100251.67;;;8.66;100.00
78064;BME280;67429;51.596;-3.264;2024-01-25T07:43:16;100256.13;;;7.62;100.00
78064;BME280;67429;51.596;-3.264;2024-01-25T07:45:42;100259.86;;;8.08;100.00
78064;BME280;67429;51.596;-3.264;2024-01-25T07:48:07;100261.40;;;7.76;100.00
78064;BME280;67429;51.596;-3.264;2024-01-25T07:50:32;100250.73;;;9.44;100.00
78064;BME280;67429;51.596;-3.264;2024-01-25T07:52:58;100254.67;;;7.80;100.00
78064;BME280;67429;51.596;-3.264;2024-01-25T07:55:28;100249.91;;;9.08;100.00
78064;BME280;67429;51.596;-3.264;2024-01-25T07:57:49;100243.48;;;8.74;100.00
78064;BME280;67429;51.596;-3.264;2024-01-25T08:00:16;100257.74;;;8.01;100.00
78064;BME280;67429;51.596;-3.264;2024-01-25T08:02:40;100258.17;;;6.57;100.00
78064;BME280;67429;51.596;-3.264;2024-01-25T08:05:06;100262.20;;;7.59;100.00
78064;BME280;67429;51.596;-3.264;2024-01-25T08:07:32;100264.94;;;7.99;100.00
78064;BME280;67429;51.596;-3.264;2024-01-25T08:09:58;100270.67;;;7.34;100.00
78064;BME280;67429;51.596;-3.264;2024-01-25T08:12:22;100263.73;;;7.26;100.00
78064;BME280;67429;51.596;-3.264;2024-01-25T08:14:48;100258.66;;;7.66;100.00
78064;BME280;67429;51.596;-3.264;2024-01-25T08:17:14;100253.69;;;7.14;100.00
78064;BME280;67429;51.596;-3.264;2024-01-25T08:19:39;100263.12;;;7.35;100.00
78064;BME280;67429;51.596;-3.264;2024-01-25T08:22:05;100251.70;;;6.95;100.00
78064;BME280;67429;51.596;-3.264;2024-01-25T08:24:31;100259.92;;;7.47;100.00
78064;BME280;67429;51.596;-3.264;2024-01-25T08:26:57;100257.80;;;7.88;100.00
78064;BME280;67429;51.596;-3.264;2024-01-25T08:29:22;100256.49;;;7.41;100.00
78064;BME280;67429;51.596;-3.264;2024-01-25T08:31:48;100268.42;;;7.24;100.00
78064;BME280;67429;51.596;-3.264;2024-01-25T08:34:14;100255.07;;;6.63;100.00
78064;BME280;67429;51.596;-3.264;2024-01-25T08:36:39;100262.79;;;6.96;100.00
78064;BME280;67429;51.596;-3.264;2024-01-25T08:39:09;100259.65;;;6.67;100.00
78064;BME280;67429;51.596;-3.264;2024-01-25T08:41:29;100264.12;;;7.49;100.00
78064;BME280;67429;51.596;-3.264;2024-01-25T08:44:00;100259.73;;;7.49;100.00
78064;BME280;67429;51.596;-3.264;2024-01-25T08:46:21;100265.20;;;6.96;100.00
78064;BME280;67429;51.596;-3.264;2024-01-25T08:48:47;100256.98;;;6.23;100.00
78064;BME280;67429;51.596;-3.264;2024-01-25T08:51:12;100258.01;;;6.96;100.00
78064;BME280;67429;51.596;-3.264;2024-01-25T08:53:38;100256.24;;;7.18;100.00
78064;BME280;67429;51.596;-3.264;2024-01-25T08:56:05;100247.43;;;7.76;100.00
78064;BME280;67429;51.596;-3.264;2024-01-25T08:58:34;100239.84;;;8.09;100.00
78064;BME280;67429;51.596;-3.264;2024-01-25T09:00:54;100242.27;;;7.46;100.00
78064;BME280;67429;51.596;-3.264;2024-01-25T09:03:20;100243.42;;;7.47;100.00
78064;BME280;67429;51.596;-3.264;2024-01-25T09:05:47;100236.01;;;7.35;100.00
78064;BME280;67429;51.596;-3.264;2024-01-25T09:08:12;100232.32;;;7.74;100.00
78064;BME280;67429;51.596;-3.264;2024-01-25T09:10:37;100231.06;;;8.29;100.00
78064;BME280;67429;51.596;-3.264;2024-01-25T09:13:02;100233.03;;;7.61;100.00
78064;BME280;67429;51.596;-3.264;2024-01-25T09:15:28;100234.50;;;7.34;100.00
78064;BME280;67429;51.596;-3.264;2024-01-25T09:17:53;100236.58;;;7.03;100.00
78064;BME280;67429;51.596;-3.264;2024-01-25T09:20:19;100232.89;;;7.49;100.00
78064;BME280;67429;51.596;-3.264;2024-01-25T09:22:45;100232.23;;;8.24;100.00
78064;BME280;67429;51.596;-3.264;2024-01-25T09:25:11;100239.05;;;8.27;100.00
78064;BME280;67429;51.596;-3.264;2024-01-25T09:27:36;100228.75;;;8.67;100.00
78064;BME280;67429;51.596;-3.264;2024-01-25T09:30:03;100228.68;;;9.44;100.00
78064;BME280;67429;51.596;-3.264;2024-01-25T09:32:27;100229.52;;;8.68;100.00
78064;BME280;67429;51.596;-3.264;2024-01-25T09:34:53;100223.40;;;8.58;100.00
78064;BME280;67429;51.596;-3.264;2024-01-25T09:37:19;100232.57;;;9.41;100.00
78064;BME280;67429;51.596;-3.264;2024-01-25T09:39:44;100223.53;;;9.84;100.00
78064;BME280;67429;51.596;-3.264;2024-01-25T09:42:10;100227.54;;;9.72;100.00
78064;BME280;67429;51.596;-3.264;2024-01-25T09:44:35;100226.20;;;8.66;100.00
78064;BME280;67429;51.596;-3.264;2024-01-25T09:47:05;100230.67;;;7.94;100.00
78064;BME280;67429;51.596;-3.264;2024-01-25T09:49:28;100227.69;;;8.35;100.00
78064;BME280;67429;51.596;-3.264;2024-01-25T09:51:53;100230.71;;;8.15;100.00
78064;BME280;67429;51.596;-3.264;2024-01-25T09:54:20;100223.24;;;8.13;100.00
78064;BME280;67429;51.596;-3.264;2024-01-25T09:56:45;100228.10;;;9.45;100.00
78064;BME280;67429;51.596;-3.264;2024-01-25T09:59:09;100225.55;;;7.57;100.00
78064;BME280;67429;51.596;-3.264;2024-01-25T10:01:35;100220.46;;;9.05;100.00
78064;BME280;67429;51.596;-3.264;2024-01-25T10:04:00;100229.19;;;10.03;100.00
78064;BME280;67429;51.596;-3.264;2024-01-25T10:06:26;100229.37;;;9.47;100.00
78064;BME280;67429;51.596;-3.264;2024-01-25T10:08:53;100220.74;;;9.75;100.00
78064;BME280;67429;51.596;-3.264;2024-01-25T10:11:17;100218.20;;;9.45;100.00
78064;BME280;67429;51.596;-3.264;2024-01-25T10:13:43;100214.59;;;8.51;100.00
78064;BME280;67429;51.596;-3.264;2024-01-25T10:16:11;100214.39;;;8.55;100.00
78064;BME280;67429;51.596;-3.264;2024-01-25T10:18:34;100217.36;;;8.62;100.00
78064;BME280;67429;51.596;-3.264;2024-01-25T10:20:59;100224.18;;;9.22;100.00
78064;BME280;67429;51.596;-3.264;2024-01-25T10:23:24;100220.49;;;9.55;100.00
78064;BME280;67429;51.596;-3.264;2024-01-25T10:25:50;100227.79;;;9.59;100.00
78064;BME280;67429;51.596;-3.264;2024-01-25T10:28:16;100229.41;;;9.33;100.00
78064;BME280;67429;51.596;-3.264;2024-01-25T10:30:41;100228.44;;;8.94;100.00
78064;BME280;67429;51.596;-3.264;2024-01-25T10:33:08;100223.98;;;10.20;100.00
78064;BME280;67429;51.596;-3.264;2024-01-25T10:35:34;100224.91;;;9.24;100.00
78064;BME280;67429;51.596;-3.264;2024-01-25T10:37:58;100232.35;;;9.66;100.00
78064;BME280;67429;51.596;-3.264;2024-01-25T10:40:23;100233.45;;;8.35;100.00
78064;BME280;67429;51.596;-3.264;2024-01-25T10:42:49;100232.67;;;9.00;100.00
78064;BME280;67429;51.596;-3.264;2024-01-25T10:45:15;100215.09;;;9.73;100.00
78064;BME280;67429;51.596;-3.264;2024-01-25T10:47:40;100204.29;;;8.30;100.00
78064;BME280;67429;51.596;-3.264;2024-01-25T10:50:06;100213.11;;;8.68;100.00
78064;BME280;67429;51.596;-3.264;2024-01-25T10:52:32;100217.95;;;8.90;100.00
78064;BME280;67429;51.596;-3.264;2024-01-25T10:54:58;100216.77;;;9.18;100.00
78064;BME280;67429;51.596;-3.264;2024-01-25T10:57:23;100216.36;;;9.36;100.00
78064;BME280;67429;51.596;-3.264;2024-01-25T10:59:49;100214.55;;;9.99;100.00
78064;BME280;67429;51.596;-3.264;2024-01-25T11:02:13;100214.84;;;9.82;100.00
78064;BME280;67429;51.596;-3.264;2024-01-25T11:04:39;100215.49;;;8.51;100.00
78064;BME280;67429;51.596;-3.264;2024-01-25T11:07:06;100213.99;;;8.85;100.00
78064;BME280;67429;51.596;-3.264;2024-01-25T11:09:31;100222.57;;;9.67;100.00
78064;BME280;67429;51.596;-3.264;2024-01-25T11:11:55;100214.91;;;9.50;100.00
78064;BME280;67429;51.596;-3.264;2024-01-25T11:14:21;100213.49;;;9.01;100.00
78064;BME280;67429;51.596;-3.264;2024-01-25T11:16:47;100210.79;;;8.09;100.00
78064;BME280;67429;51.596;-3.264;2024-01-25T11:19:18;100213.13;;;8.68;100.00
78064;BME280;67429;51.596;-3.264;2024-01-25T11:21:41;100209.82;;;8.52;100.00
78064;BME280;67429;51.596;-3.264;2024-01-25T11:24:05;100209.68;;;9.77;100.00
78064;BME280;67429;51.596;-3.264;2024-01-25T11:26:28;100207.11;;;8.89;100.00
78064;BME280;67429;51.596;-3.264;2024-01-25T11:28:54;100203.27;;;9.14;100.00
78064;BME280;67429;51.596;-3.264;2024-01-25T11:31:21;100200.54;;;9.04;100.00
78064;BME280;67429;51.596;-3.264;2024-01-25T11:33:46;100192.42;;;9.13;100.00
78064;BME280;67429;51.596;-3.264;2024-01-25T11:36:10;100192.14;;;8.76;100.00
78064;BME280;67429;51.596;-3.264;2024-01-25T11:38:36;100192.78;;;8.34;100.00
78064;BME280;67429;51.596;-3.264;2024-01-25T11:41:01;100192.43;;;7.42;100.00
78064;BME280;67429;51.596;-3.264;2024-01-25T11:43:28;100194.43;;;9.12;100.00
78064;BME280;67429;51.596;-3.264;2024-01-25T11:45:54;100188.38;;;9.56;100.00
78064;BME280;67429;51.596;-3.264;2024-01-25T11:48:18;100188.16;;;8.64;100.00
78064;BME280;67429;51.596;-3.264;2024-01-25T11:50:44;100190.81;;;8.85;100.00
78064;BME280;67429;51.596;-3.264;2024-01-25T11:53:09;100194.49;;;7.87;100.00
78064;BME280;67429;51.596;-3.264;2024-01-25T11:55:35;100189.68;;;9.51;100.00
78064;BME280;67429;51.596;-3.264;2024-01-25T11:58:01;100191.45;;;9.18;100.00
78064;BME280;67429;51.596;-3.264;2024-01-25T12:00:26;100186.18;;;9.48;100.00
78064;BME280;67429;51.596;-3.264;2024-01-25T12:02:52;100188.48;;;9.20;100.00
78064;BME280;67429;51.596;-3.264;2024-01-25T12:05:17;100182.51;;;8.69;100.00
78064;BME280;67429;51.596;-3.264;2024-01-25T12:07:44;100181.32;;;8.10;100.00
78064;BME280;67429;51.596;-3.264;2024-01-25T12:10:15;100177.64;;;8.21;100.00
78064;BME280;67429;51.596;-3.264;2024-01-25T12:12:35;100178.08;;;9.48;100.00
78064;BME280;67429;51.596;-3.264;2024-01-25T12:15:01;100172.87;;;9.39;100.00
78064;BME280;67429;51.596;-3.264;2024-01-25T12:17:27;100170.12;;;8.95;100.00
78064;BME280;67429;51.596;-3.264;2024-01-25T12:19:51;100170.15;;;9.16;100.00
78064;BME280;67429;51.596;-3.264;2024-01-25T12:22:21;100172.13;;;9.27;100.00
78064;BME280;67429;51.596;-3.264;2024-01-25T12:24:42;100168.07;;;10.23;100.00
78064;BME280;67429;51.596;-3.264;2024-01-25T12:27:10;100164.30;;;8.83;100.00
78064;BME280;67429;51.596;-3.264;2024-01-25T12:29:34;100161.94;;;10.72;100.00